createdAt,value
2022-11-05T00:00:47.855Z,993.86
2022-11-05T00:01:47.847Z,993.88
2022-11-05T00:02:47.811Z,993.88
2022-11-05T00:03:47.908Z,993.87
2022-11-05T00:04:47.784Z,993.94
2022-11-05T00:05:47.768Z,993.92
2022-11-05T00:06:47.900Z,993.94
2022-11-05T00:07:47.783Z,993.90
2022-11-05T00:08:47.876Z,993.94
2022-11-05T00:09:47.722Z,993.95
2022-11-05T00:10:47.756Z,993.92
2022-11-05T00:11:47.796Z,993.94
2022-11-05T00:12:47.777Z,993.97
2022-11-05T00:13:47.725Z,993.98
2022-11-05T00:14:47.727Z,993.98
2022-11-05T00:15:47.651Z,993.99
2022-11-05T00:16:47.641Z,994.03
2022-11-05T00:17:47.906Z,994.06
2022-11-05T00:18:47.621Z,994.06
2022-11-05T00:19:47.631Z,994.07
2022-11-05T00:20:47.596Z,994.05
2022-11-05T00:21:47.583Z,994.05
2022-11-05T00:22:47.660Z,994.09
2022-11-05T00:23:47.562Z,994.17
2022-11-05T00:24:47.692Z,994.14
2022-11-05T00:25:47.599Z,994.22
2022-11-05T00:26:47.559Z,994.21
2022-11-05T00:27:47.513Z,994.20
2022-11-05T00:28:47.503Z,994.23
2022-11-05T00:29:47.491Z,994.28
2022-11-05T00:30:47.481Z,994.25
2022-11-05T00:31:47.475Z,994.25
2022-11-05T00:32:47.557Z,994.28
2022-11-05T00:33:47.443Z,994.23
2022-11-05T00:34:47.446Z,994.21
2022-11-05T00:35:47.427Z,994.23
2022-11-05T00:36:47.411Z,994.25
2022-11-05T00:37:50.284Z,994.27
2022-11-05T00:38:47.425Z,994.30
2022-11-05T00:39:47.376Z,994.30
2022-11-05T00:40:47.452Z,994.31
2022-11-05T00:41:47.358Z,994.36
2022-11-05T00:42:47.371Z,994.33
2022-11-05T00:43:47.339Z,994.40
2022-11-05T00:44:47.321Z,994.36
2022-11-05T00:45:47.331Z,994.32
2022-11-05T00:46:47.302Z,994.41
2022-11-05T00:47:47.291Z,994.45
2022-11-05T00:48:47.277Z,994.46
2022-11-05T00:49:47.264Z,994.45
2022-11-05T00:50:47.279Z,994.45
2022-11-05T00:51:47.242Z,994.49
2022-11-05T00:52:47.232Z,994.50
2022-11-05T00:53:47.255Z,994.50
2022-11-05T00:54:47.206Z,994.50
2022-11-05T00:55:47.296Z,994.51
2022-11-05T00:56:47.297Z,994.51
2022-11-05T00:57:47.171Z,994.58
2022-11-05T00:58:47.163Z,994.58
2022-11-05T00:59:47.175Z,994.60
2022-11-05T01:00:47.152Z,994.58
2022-11-05T01:01:47.279Z,994.61
2022-11-05T01:02:47.205Z,994.63
2022-11-05T01:03:51.498Z,994.62
2022-11-05T01:04:47.093Z,994.59
2022-11-05T01:05:47.083Z,994.59
2022-11-05T01:06:47.069Z,994.60
2022-11-05T01:07:47.063Z,994.57
2022-11-05T01:08:47.052Z,994.59
2022-11-05T01:09:47.072Z,994.55
2022-11-05T01:10:47.027Z,994.56
2022-11-05T01:11:47.013Z,994.59
2022-11-05T01:12:47.032Z,994.60
2022-11-05T01:13:46.990Z,994.61
2022-11-05T01:14:47.004Z,994.60
2022-11-05T01:15:46.969Z,994.65
2022-11-05T01:16:46.954Z,994.62
2022-11-05T01:17:46.948Z,994.64
2022-11-05T01:18:46.956Z,994.60
2022-11-05T01:19:46.921Z,994.65
2022-11-05T01:20:46.908Z,994.69
2022-11-05T01:21:46.900Z,994.69
2022-11-05T01:22:46.884Z,994.71
2022-11-05T01:23:46.898Z,994.68
2022-11-05T01:24:46.891Z,994.68
2022-11-05T01:25:46.860Z,994.70
2022-11-05T01:26:46.842Z,994.66
2022-11-05T01:27:46.835Z,994.66
2022-11-05T01:28:46.929Z,994.62
2022-11-05T01:29:46.833Z,994.69
2022-11-05T01:30:46.797Z,994.66
2022-11-05T01:31:46.815Z,994.58
2022-11-05T01:32:46.777Z,994.64
2022-11-05T01:33:46.763Z,994.66
2022-11-05T01:34:46.772Z,994.66
2022-11-05T01:35:46.738Z,994.59
2022-11-05T01:36:46.727Z,994.65
2022-11-05T01:37:46.742Z,994.66
2022-11-05T01:38:46.732Z,994.70
2022-11-05T01:39:46.719Z,994.69
2022-11-05T01:40:46.704Z,994.70
2022-11-05T01:41:46.673Z,994.71
2022-11-05T01:42:46.659Z,994.72
2022-11-05T01:43:46.653Z,994.71
2022-11-05T01:44:46.729Z,994.72
2022-11-05T01:45:46.630Z,994.66
2022-11-05T01:46:46.612Z,994.76
2022-11-05T01:47:46.604Z,994.77
2022-11-05T01:48:46.589Z,994.76
2022-11-05T01:49:46.606Z,994.75
2022-11-05T01:50:46.577Z,994.80
2022-11-05T01:51:46.558Z,994.76
2022-11-05T01:52:46.548Z,994.78
2022-11-05T01:53:46.557Z,994.77
2022-11-05T01:54:46.526Z,994.78
2022-11-05T01:55:46.536Z,994.80
2022-11-05T01:56:46.499Z,994.83
2022-11-05T01:57:46.487Z,994.88
2022-11-05T01:58:46.491Z,994.88
2022-11-05T01:59:46.490Z,994.92
2022-11-05T02:00:46.573Z,994.91
2022-11-05T02:01:46.647Z,994.94
2022-11-05T02:02:46.609Z,994.91
2022-11-05T02:03:46.451Z,994.90
2022-11-05T02:04:46.414Z,994.94
2022-11-05T02:05:46.402Z,994.89
2022-11-05T02:06:46.514Z,994.89
2022-11-05T02:07:46.408Z,994.91
2022-11-05T02:08:46.401Z,994.90
2022-11-05T02:09:46.399Z,994.89
2022-11-05T02:10:46.368Z,994.93
2022-11-05T02:11:46.336Z,994.89
2022-11-05T02:12:46.327Z,994.90
2022-11-05T02:13:46.341Z,994.91
2022-11-05T02:14:46.374Z,994.89
2022-11-05T02:15:46.292Z,994.91
2022-11-05T02:16:46.299Z,994.91
2022-11-05T02:17:46.268Z,994.93
2022-11-05T02:18:46.260Z,994.93
2022-11-05T02:19:46.280Z,994.99
2022-11-05T02:20:51.845Z,995.01
2022-11-05T02:21:47.259Z,995.00
2022-11-05T02:22:46.373Z,994.99
2022-11-05T02:23:46.215Z,995.00
2022-11-05T02:24:46.205Z,994.97
2022-11-05T02:25:46.184Z,995.01
2022-11-05T02:26:46.179Z,995.04
2022-11-05T02:27:46.164Z,995.07
2022-11-05T02:28:46.177Z,995.00
2022-11-05T02:29:46.186Z,995.02
2022-11-05T02:30:46.139Z,995.04
2022-11-05T02:31:46.157Z,995.07
2022-11-05T02:32:46.226Z,995.11
2022-11-05T02:33:46.135Z,995.15
2022-11-05T02:34:46.096Z,995.14
2022-11-05T02:35:46.077Z,995.17
2022-11-05T02:36:46.089Z,995.14
2022-11-05T02:37:46.060Z,995.17
2022-11-05T02:38:46.065Z,995.19
2022-11-05T02:39:46.054Z,995.18
2022-11-05T02:40:46.030Z,995.19
2022-11-05T02:41:46.033Z,995.21
2022-11-05T02:42:46.003Z,995.20
2022-11-05T02:43:45.987Z,995.17
2022-11-05T02:44:45.985Z,995.22
2022-11-05T02:45:45.989Z,995.19
2022-11-05T02:46:46.018Z,995.20
2022-11-05T02:47:45.978Z,995.20
2022-11-05T02:48:46.040Z,995.18
2022-11-05T02:49:45.924Z,995.20
2022-11-05T02:50:45.956Z,995.20
2022-11-05T02:51:45.897Z,995.20
2022-11-05T02:52:45.924Z,995.20
2022-11-05T02:53:45.879Z,995.22
2022-11-05T02:54:45.870Z,995.22
2022-11-05T02:55:45.855Z,995.21
2022-11-05T02:56:45.845Z,995.20
2022-11-05T02:57:45.853Z,995.19
2022-11-05T02:58:45.827Z,995.20
2022-11-05T02:59:45.838Z,995.18
2022-11-05T03:00:45.824Z,995.18
2022-11-05T03:01:45.918Z,995.17
2022-11-05T03:02:45.988Z,995.16
2022-11-05T03:03:45.766Z,995.17
2022-11-05T03:04:45.800Z,995.23
2022-11-05T03:05:45.779Z,995.23
2022-11-05T03:06:45.740Z,995.21
2022-11-05T03:07:45.724Z,995.23
2022-11-05T03:08:45.721Z,995.23
2022-11-05T03:09:45.708Z,995.21
2022-11-05T03:10:45.732Z,995.18
2022-11-05T03:11:45.677Z,995.23
2022-11-05T03:12:45.670Z,995.23
2022-11-05T03:13:45.681Z,995.21
2022-11-05T03:14:45.648Z,995.24
2022-11-05T03:15:45.646Z,995.23
2022-11-05T03:16:45.628Z,995.28
2022-11-05T03:17:45.613Z,995.31
2022-11-05T03:18:45.623Z,995.30
2022-11-05T03:19:45.592Z,995.27
2022-11-05T03:20:45.637Z,995.28
2022-11-05T03:21:45.587Z,995.27
2022-11-05T03:22:45.631Z,995.27
2022-11-05T03:23:45.547Z,995.29
2022-11-05T03:24:45.549Z,995.30
2022-11-05T03:25:45.523Z,995.37
2022-11-05T03:26:45.541Z,995.34
2022-11-05T03:27:45.524Z,995.39
2022-11-05T03:28:45.494Z,995.36
2022-11-05T03:29:45.475Z,995.38
2022-11-05T03:30:45.487Z,995.38
2022-11-05T03:31:45.559Z,995.35
2022-11-05T03:32:45.455Z,995.36
2022-11-05T03:33:45.432Z,995.40
2022-11-05T03:34:45.443Z,995.42
2022-11-05T03:35:45.405Z,995.43
2022-11-05T03:36:45.419Z,995.42
2022-11-05T03:37:45.461Z,995.46
2022-11-05T03:38:45.378Z,995.46
2022-11-05T03:39:45.367Z,995.50
2022-11-05T03:40:45.364Z,995.45
2022-11-05T03:41:45.340Z,995.44
2022-11-05T03:42:45.362Z,995.45
2022-11-05T03:43:45.345Z,995.45
2022-11-05T03:44:45.334Z,995.50
2022-11-05T03:45:45.366Z,995.48
2022-11-05T03:46:45.351Z,995.51
2022-11-05T03:47:45.315Z,995.52
2022-11-05T03:48:45.367Z,995.54
2022-11-05T03:49:45.249Z,995.58
2022-11-05T03:50:45.264Z,995.56
2022-11-05T03:51:45.226Z,995.58
2022-11-05T03:52:45.264Z,995.58
2022-11-05T03:53:45.214Z,995.58
2022-11-05T03:54:45.205Z,995.57
2022-11-05T03:55:45.184Z,995.62
2022-11-05T03:56:45.173Z,995.62
2022-11-05T03:57:45.184Z,995.63
2022-11-05T03:58:45.173Z,995.62
2022-11-05T03:59:45.168Z,995.66
2022-11-05T04:00:45.128Z,995.62
2022-11-05T04:01:45.322Z,995.66
2022-11-05T04:02:45.355Z,995.66
2022-11-05T04:03:45.094Z,995.62
2022-11-05T04:04:45.090Z,995.63
2022-11-05T04:05:45.077Z,995.64
2022-11-05T04:06:45.070Z,995.68
2022-11-05T04:07:45.056Z,995.69
2022-11-05T04:08:45.113Z,995.70
2022-11-05T04:09:45.072Z,995.71
2022-11-05T04:10:45.117Z,995.73
2022-11-05T04:11:45.035Z,995.76
2022-11-05T04:12:44.994Z,995.77
2022-11-05T04:13:45.009Z,995.77
2022-11-05T04:14:44.968Z,995.76
2022-11-05T04:15:44.993Z,995.75
2022-11-05T04:16:44.951Z,995.77
2022-11-05T04:17:44.948Z,995.74
2022-11-05T04:18:44.925Z,995.79
2022-11-05T04:19:44.945Z,995.81
2022-11-05T04:20:44.902Z,995.77
2022-11-05T04:21:44.923Z,995.79
2022-11-05T04:22:44.914Z,995.80
2022-11-05T04:23:44.872Z,995.83
2022-11-05T04:24:44.871Z,995.80
2022-11-05T04:25:44.853Z,995.82
2022-11-05T04:26:44.858Z,995.80
2022-11-05T04:27:44.826Z,995.89
2022-11-05T04:28:44.839Z,995.87
2022-11-05T04:29:44.804Z,995.91
2022-11-05T04:30:44.792Z,995.91
2022-11-05T04:31:44.882Z,995.89
2022-11-05T04:32:44.791Z,995.89
2022-11-05T04:33:44.783Z,995.94
2022-11-05T04:34:44.773Z,995.93
2022-11-05T04:35:44.737Z,995.98
2022-11-05T04:36:44.726Z,996.04
2022-11-05T04:37:44.714Z,996.02
2022-11-05T04:38:44.730Z,996.04
2022-11-05T04:39:44.721Z,996.07
2022-11-05T04:40:44.697Z,996.10
2022-11-05T04:41:44.675Z,996.11
2022-11-05T04:42:44.708Z,996.08
2022-11-05T04:43:44.675Z,996.15
2022-11-05T04:44:44.646Z,996.16
2022-11-05T04:45:44.628Z,996.15
2022-11-05T04:46:44.634Z,996.19
2022-11-05T04:47:44.627Z,996.14
2022-11-05T04:48:44.618Z,996.17
2022-11-05T04:49:44.581Z,996.15
2022-11-05T04:50:44.572Z,996.15
2022-11-05T04:51:44.591Z,996.14
2022-11-05T04:52:44.572Z,996.11
2022-11-05T04:53:44.536Z,996.14
2022-11-05T04:54:44.524Z,996.17
2022-11-05T04:55:44.519Z,996.12
2022-11-05T04:56:44.634Z,996.12
2022-11-05T04:57:44.506Z,996.17
2022-11-05T04:58:44.479Z,996.16
2022-11-05T04:59:44.478Z,996.18
2022-11-05T05:00:44.641Z,996.17
2022-11-05T05:01:44.519Z,996.19
2022-11-05T05:02:44.431Z,996.21
2022-11-05T05:03:44.428Z,996.21
2022-11-05T05:04:44.413Z,996.20
2022-11-05T05:05:44.436Z,996.26
2022-11-05T05:06:44.394Z,996.22
2022-11-05T05:07:44.378Z,996.21
2022-11-05T05:08:44.367Z,996.18
2022-11-05T05:09:44.383Z,996.19
2022-11-05T05:10:44.346Z,996.19
2022-11-05T05:11:44.332Z,996.20
2022-11-05T05:12:44.373Z,996.18
2022-11-05T05:13:44.317Z,996.23
2022-11-05T05:14:44.325Z,996.19
2022-11-05T05:15:44.296Z,996.23
2022-11-05T05:16:44.277Z,996.22
2022-11-05T05:17:44.268Z,996.23
2022-11-05T05:18:46.355Z,996.16
2022-11-05T05:19:44.274Z,996.14
2022-11-05T05:20:44.234Z,996.16
2022-11-05T05:21:44.223Z,996.18
2022-11-05T05:22:44.211Z,996.15
2022-11-05T05:23:44.202Z,996.17
2022-11-05T05:24:47.406Z,996.17
2022-11-05T05:25:45.200Z,996.18
2022-11-05T05:26:44.171Z,996.17
2022-11-05T05:27:44.156Z,996.20
2022-11-05T05:28:44.198Z,996.23
2022-11-05T05:29:44.145Z,996.19
2022-11-05T05:30:44.148Z,996.23
2022-11-05T05:31:44.125Z,996.23
2022-11-05T05:32:44.099Z,996.21
2022-11-05T05:33:44.097Z,996.19
2022-11-05T05:34:44.102Z,996.19
2022-11-05T05:35:44.097Z,996.20
2022-11-05T05:36:44.055Z,996.22
2022-11-05T05:37:44.052Z,996.28
2022-11-05T05:38:44.034Z,996.33
2022-11-05T05:39:44.027Z,996.31
2022-11-05T05:40:44.021Z,996.37
2022-11-05T05:41:44.027Z,996.44
2022-11-05T05:42:43.989Z,996.37
2022-11-05T05:43:43.976Z,996.38
2022-11-05T05:44:43.986Z,996.42
2022-11-05T05:45:43.966Z,996.50
2022-11-05T05:46:43.965Z,996.49
2022-11-05T05:47:43.931Z,996.48
2022-11-05T05:48:43.920Z,996.49
2022-11-05T05:49:43.918Z,996.51
2022-11-05T05:50:43.897Z,996.49
2022-11-05T05:51:43.914Z,996.53
2022-11-05T05:52:43.879Z,996.57
2022-11-05T05:53:43.869Z,996.56
2022-11-05T05:54:43.854Z,996.59
2022-11-05T05:55:43.843Z,996.60
2022-11-05T05:56:43.857Z,996.63
2022-11-05T05:57:43.823Z,996.64
2022-11-05T05:58:43.809Z,996.64
2022-11-05T05:59:43.799Z,996.68
2022-11-05T06:00:43.825Z,996.69
2022-11-05T06:01:43.945Z,996.70
2022-11-05T06:02:43.960Z,996.70
2022-11-05T06:03:43.756Z,996.74
2022-11-05T06:04:43.748Z,996.79
2022-11-05T06:05:43.732Z,996.74
2022-11-05T06:06:43.925Z,996.78
2022-11-05T06:07:43.709Z,996.84
2022-11-05T06:08:43.702Z,996.81
2022-11-05T06:09:43.695Z,996.80
2022-11-05T06:10:43.737Z,996.81
2022-11-05T06:11:43.696Z,996.78
2022-11-05T06:12:43.662Z,996.77
2022-11-05T06:13:43.644Z,996.77
2022-11-05T06:14:43.664Z,996.77
2022-11-05T06:15:43.628Z,996.76
2022-11-05T06:16:43.636Z,996.75
2022-11-05T06:17:43.640Z,996.78
2022-11-05T06:18:43.590Z,996.81
2022-11-05T06:19:43.617Z,996.78
2022-11-05T06:20:43.573Z,996.81
2022-11-05T06:21:43.562Z,996.84
2022-11-05T06:22:43.547Z,996.85
2022-11-05T06:23:43.566Z,996.86
2022-11-05T06:24:43.553Z,996.87
2022-11-05T06:25:43.522Z,996.87
2022-11-05T06:26:43.507Z,996.91
2022-11-05T06:27:43.495Z,996.94
2022-11-05T06:28:43.508Z,996.96
2022-11-05T06:29:43.475Z,996.98
2022-11-05T06:30:43.462Z,996.95
2022-11-05T06:31:43.478Z,996.98
2022-11-05T06:32:43.455Z,996.94
2022-11-05T06:33:43.459Z,996.96
2022-11-05T06:34:43.425Z,996.99
2022-11-05T06:35:43.409Z,997.02
2022-11-05T06:36:43.393Z,997.05
2022-11-05T06:37:43.395Z,997.03
2022-11-05T06:38:43.415Z,997.09
2022-11-05T06:39:43.363Z,997.12
2022-11-05T06:40:43.356Z,997.15
2022-11-05T06:42:11.924Z,997.16
2022-11-05T06:42:44.327Z,997.12
2022-11-05T06:43:43.362Z,997.17
2022-11-05T06:44:43.312Z,997.16
2022-11-05T06:45:43.294Z,997.19
2022-11-05T06:46:48.147Z,997.15
2022-11-05T06:47:44.309Z,997.19
2022-11-05T06:48:43.279Z,997.19
2022-11-05T06:49:43.253Z,997.18
2022-11-05T06:50:43.245Z,997.21
2022-11-05T06:51:43.234Z,997.21
2022-11-05T06:52:43.244Z,997.23
2022-11-05T06:53:43.206Z,997.25
2022-11-05T06:54:43.191Z,997.22
2022-11-05T06:55:43.186Z,997.24
2022-11-05T06:56:43.167Z,997.25
2022-11-05T06:57:43.181Z,997.29
2022-11-05T06:58:43.149Z,997.27
2022-11-05T06:59:43.135Z,997.27
2022-11-05T07:00:43.234Z,997.28
2022-11-05T07:01:43.283Z,997.30
2022-11-05T07:02:43.104Z,997.31
2022-11-05T07:03:43.093Z,997.33
2022-11-05T07:04:43.189Z,997.36
2022-11-05T07:05:43.084Z,997.40
2022-11-05T07:06:43.052Z,997.39
2022-11-05T07:07:43.045Z,997.41
2022-11-05T07:08:43.046Z,997.41
2022-11-05T07:09:43.056Z,997.43
2022-11-05T07:10:43.036Z,997.40
2022-11-05T07:11:42.999Z,997.45
2022-11-05T07:12:43.026Z,997.47
2022-11-05T07:13:42.998Z,997.47
2022-11-05T07:14:42.960Z,997.49
2022-11-05T07:15:42.957Z,997.50
2022-11-05T07:16:42.962Z,997.53
2022-11-05T07:17:42.930Z,997.57
2022-11-05T07:18:42.915Z,997.60
2022-11-05T07:19:42.912Z,997.59
2022-11-05T07:20:42.912Z,997.59
2022-11-05T07:21:42.909Z,997.60
2022-11-05T07:22:42.875Z,997.61
2022-11-05T07:23:42.872Z,997.64
2022-11-05T07:24:42.881Z,997.59
2022-11-05T07:25:42.842Z,997.64
2022-11-05T07:26:42.828Z,997.62
2022-11-05T07:27:42.818Z,997.67
2022-11-05T07:28:42.810Z,997.65
2022-11-05T07:29:42.830Z,997.71
2022-11-05T07:30:42.792Z,997.68
2022-11-05T07:31:42.779Z,997.72
2022-11-05T07:32:42.770Z,997.74
2022-11-05T07:33:42.873Z,997.80
2022-11-05T07:34:42.742Z,997.80
2022-11-05T07:35:42.736Z,997.78
2022-11-05T07:36:42.732Z,997.84
2022-11-05T07:37:42.713Z,997.83
2022-11-05T07:38:42.723Z,997.84
2022-11-05T07:39:42.688Z,997.85
2022-11-05T07:40:42.678Z,997.84
2022-11-05T07:41:42.664Z,997.88
2022-11-05T07:42:42.677Z,997.87
2022-11-05T07:43:42.641Z,997.84
2022-11-05T07:44:42.627Z,997.91
2022-11-05T07:45:42.641Z,997.96
2022-11-05T07:46:42.608Z,997.95
2022-11-05T07:47:42.605Z,998.00
2022-11-05T07:48:42.919Z,997.99
2022-11-05T07:49:42.582Z,997.98
2022-11-05T07:50:42.573Z,998.00
2022-11-05T07:51:42.550Z,998.07
2022-11-05T07:52:42.655Z,998.10
2022-11-05T07:53:45.475Z,998.13
2022-11-05T07:54:42.521Z,998.15
2022-11-05T07:55:42.516Z,998.18
2022-11-05T07:56:42.491Z,998.17
2022-11-05T07:57:42.482Z,998.12
2022-11-05T07:58:42.472Z,998.11
2022-11-05T07:59:42.488Z,998.14
2022-11-05T08:00:42.524Z,998.15
2022-11-05T08:01:42.669Z,998.18
2022-11-05T08:02:42.676Z,998.16
2022-11-05T08:03:42.559Z,998.17
2022-11-05T08:04:42.404Z,998.17
2022-11-05T08:05:42.394Z,998.13
2022-11-05T08:06:42.384Z,998.09
2022-11-05T08:07:42.374Z,998.06
2022-11-05T08:08:42.403Z,998.05
2022-11-05T08:09:42.352Z,998.04
2022-11-05T08:10:42.338Z,998.12
2022-11-05T08:11:42.329Z,998.14
2022-11-05T08:12:42.339Z,998.17
2022-11-05T08:13:42.328Z,998.17
2022-11-05T08:14:42.298Z,998.23
2022-11-05T08:15:42.288Z,998.20
2022-11-05T08:16:42.281Z,998.19
2022-11-05T08:17:42.261Z,998.21
2022-11-05T08:18:42.272Z,998.23
2022-11-05T08:19:42.240Z,998.24
2022-11-05T08:20:42.227Z,998.26
2022-11-05T08:21:42.216Z,998.24
2022-11-05T08:22:42.207Z,998.28
2022-11-05T08:23:42.216Z,998.28
2022-11-05T08:24:42.207Z,998.26
2022-11-05T08:25:42.201Z,998.30
2022-11-05T08:26:42.161Z,998.31
2022-11-05T08:27:42.152Z,998.33
2022-11-05T08:28:42.164Z,998.38
2022-11-05T08:29:42.131Z,998.36
2022-11-05T08:30:42.121Z,998.38
2022-11-05T08:31:42.146Z,998.39
2022-11-05T08:32:42.117Z,998.42
2022-11-05T08:33:42.088Z,998.41
2022-11-05T08:34:42.075Z,998.41
2022-11-05T08:35:42.072Z,998.43
2022-11-05T08:36:42.057Z,998.40
2022-11-05T08:37:42.068Z,998.42
2022-11-05T08:38:42.052Z,998.44
2022-11-05T08:39:42.024Z,998.44
2022-11-05T08:40:42.033Z,998.43
2022-11-05T08:41:42.020Z,998.47
2022-11-05T08:42:41.987Z,998.48
2022-11-05T08:43:41.972Z,998.46
2022-11-05T08:44:41.965Z,998.48
2022-11-05T08:45:41.951Z,998.48
2022-11-05T08:46:42.030Z,998.51
2022-11-05T08:47:41.928Z,998.51
2022-11-05T08:48:41.943Z,998.57
2022-11-05T08:49:41.909Z,998.61
2022-11-05T08:50:41.908Z,998.63
2022-11-05T08:51:41.888Z,998.64
2022-11-05T08:52:41.879Z,998.63
2022-11-05T08:53:42.223Z,998.64
2022-11-05T08:54:41.925Z,998.66
2022-11-05T08:55:41.846Z,998.62
2022-11-05T08:56:41.851Z,998.58
2022-11-05T08:57:41.819Z,998.62
2022-11-05T08:58:41.844Z,998.64
2022-11-05T08:59:41.800Z,998.60
2022-11-05T09:00:41.852Z,998.63
2022-11-05T09:01:41.885Z,998.64
2022-11-05T09:02:41.885Z,998.63
2022-11-05T09:03:41.756Z,998.60
2022-11-05T09:04:41.768Z,998.62
2022-11-05T09:05:41.728Z,998.62
2022-11-05T09:06:41.723Z,998.61
2022-11-05T09:07:41.707Z,998.63
2022-11-05T09:08:41.709Z,998.63
2022-11-05T09:09:41.717Z,998.62
2022-11-05T09:10:41.674Z,998.64
2022-11-05T09:12:09.804Z,998.63
2022-11-05T09:12:42.694Z,998.62
2022-11-05T09:13:41.638Z,998.66
2022-11-05T09:14:41.638Z,998.63
2022-11-05T09:15:41.617Z,998.64
2022-11-05T09:16:41.611Z,998.67
2022-11-05T09:17:41.621Z,998.59
2022-11-05T09:18:41.585Z,998.60
2022-11-05T09:19:41.569Z,998.60
2022-11-05T09:20:41.565Z,998.66
2022-11-05T09:21:41.633Z,998.64
2022-11-05T09:22:43.430Z,998.70
2022-11-05T09:23:41.548Z,998.66
2022-11-05T09:24:41.522Z,998.64
2022-11-05T09:25:41.532Z,998.66
2022-11-05T09:26:41.493Z,998.61
2022-11-05T09:27:41.483Z,998.66
2022-11-05T09:28:41.489Z,998.65
2022-11-05T09:29:41.461Z,998.68
2022-11-05T09:30:41.472Z,998.66
2022-11-05T09:31:41.439Z,998.65
2022-11-05T09:32:41.428Z,998.67
2022-11-05T09:33:41.437Z,998.67
2022-11-05T09:34:41.410Z,998.62
2022-11-05T09:35:41.396Z,998.61
2022-11-05T09:36:41.384Z,998.60
2022-11-05T09:37:41.382Z,998.64
2022-11-05T09:38:41.385Z,998.65
2022-11-05T09:39:41.352Z,998.70
2022-11-05T09:40:41.345Z,998.70
2022-11-05T09:41:41.328Z,998.73
2022-11-05T09:42:41.406Z,998.75
2022-11-05T09:43:41.309Z,998.78
2022-11-05T09:44:41.425Z,998.72
2022-11-05T09:45:41.287Z,998.72
2022-11-05T09:46:41.273Z,998.75
2022-11-05T09:47:41.262Z,998.71
2022-11-05T09:48:41.271Z,998.74
2022-11-05T09:49:41.236Z,998.80
2022-11-05T09:50:41.225Z,998.74
2022-11-05T09:51:41.217Z,998.76
2022-11-05T09:52:41.205Z,998.75
2022-11-05T09:53:41.228Z,998.74
2022-11-05T09:54:41.189Z,998.77
2022-11-05T09:55:41.172Z,998.76
2022-11-05T09:56:41.161Z,998.80
2022-11-05T09:57:41.170Z,998.80
2022-11-05T09:58:41.138Z,998.82
2022-11-05T09:59:41.154Z,998.84
2022-11-05T10:00:41.325Z,998.80
2022-11-05T10:01:41.293Z,998.78
2022-11-05T10:02:41.330Z,998.78
2022-11-05T10:03:41.109Z,998.80
2022-11-05T10:04:41.100Z,998.82
2022-11-05T10:05:41.141Z,998.80
2022-11-05T10:06:41.052Z,998.85
2022-11-05T10:07:41.044Z,998.85
2022-11-05T10:08:41.036Z,998.88
2022-11-05T10:09:41.037Z,998.85
2022-11-05T10:10:41.486Z,998.89
2022-11-05T10:11:40.995Z,998.90
2022-11-05T10:12:40.993Z,998.89
2022-11-05T10:13:40.973Z,998.80
2022-11-05T10:14:40.959Z,998.81
2022-11-05T10:15:40.978Z,998.76
2022-11-05T10:16:40.955Z,998.79
2022-11-05T10:17:40.930Z,998.77
2022-11-05T10:18:40.917Z,998.77
2022-11-05T10:19:40.899Z,998.78
2022-11-05T10:20:40.923Z,998.80
2022-11-05T10:22:46.504Z,998.80
2022-11-05T10:23:41.853Z,998.81
2022-11-05T10:24:40.869Z,998.75
2022-11-05T10:25:40.865Z,998.74
2022-11-05T10:26:40.858Z,998.74
2022-11-05T10:27:40.854Z,998.75
2022-11-05T10:28:40.869Z,998.75
2022-11-05T10:29:40.790Z,998.80
2022-11-05T10:30:40.807Z,998.73
2022-11-05T10:31:40.789Z,998.71
2022-11-05T10:32:40.801Z,998.69
2022-11-05T10:33:40.767Z,998.71
2022-11-05T10:34:40.789Z,998.67
2022-11-05T10:35:40.731Z,998.68
2022-11-05T10:36:40.749Z,998.67
2022-11-05T10:37:41.238Z,998.71
2022-11-05T10:38:40.723Z,998.74
2022-11-05T10:39:40.684Z,998.78
2022-11-05T10:40:40.673Z,998.76
2022-11-05T10:41:40.686Z,998.86
2022-11-05T10:42:40.754Z,998.83
2022-11-05T10:43:40.639Z,998.86
2022-11-05T10:44:40.664Z,998.91
2022-11-05T10:45:40.651Z,998.91
2022-11-05T10:46:40.604Z,998.89
2022-11-05T10:47:40.620Z,998.89
2022-11-05T10:48:43.702Z,998.92
2022-11-05T10:49:40.593Z,998.92
2022-11-05T10:50:40.581Z,998.93
2022-11-05T10:51:40.547Z,998.95
2022-11-05T10:52:40.538Z,998.98
2022-11-05T10:53:40.534Z,999.00
2022-11-05T10:54:40.537Z,999.01
2022-11-05T10:55:40.499Z,999.02
2022-11-05T10:56:40.503Z,999.00
2022-11-05T10:57:40.479Z,999.03
2022-11-05T10:58:40.472Z,999.00
2022-11-05T10:59:40.479Z,999.04
2022-11-05T11:00:40.549Z,999.02
2022-11-05T11:01:40.548Z,999.01
2022-11-05T11:02:40.426Z,998.96
2022-11-05T11:03:40.620Z,998.96
2022-11-05T11:04:40.427Z,999.01
2022-11-05T11:05:40.396Z,998.97
2022-11-05T11:06:40.385Z,998.99
2022-11-05T11:07:40.378Z,999.02
2022-11-05T11:08:40.392Z,998.98
2022-11-05T11:09:40.360Z,998.96
2022-11-05T11:10:40.391Z,998.96
2022-11-05T11:11:40.324Z,998.99
2022-11-05T11:12:41.217Z,998.97
2022-11-05T11:13:40.298Z,998.97
2022-11-05T11:14:40.299Z,998.94
2022-11-05T11:15:40.283Z,998.94
2022-11-05T11:16:40.321Z,998.93
2022-11-05T11:17:40.258Z,998.94
2022-11-05T11:18:40.626Z,998.95
2022-11-05T11:19:40.239Z,998.94
2022-11-05T11:20:40.244Z,998.98
2022-11-05T11:21:40.239Z,998.98
2022-11-05T11:22:40.234Z,998.96
2022-11-05T11:23:40.187Z,999.05
2022-11-05T11:24:40.184Z,999.06
2022-11-05T11:25:40.174Z,999.01
2022-11-05T11:26:40.207Z,999.06
2022-11-05T11:27:40.154Z,999.06
2022-11-05T11:28:40.146Z,999.07
2022-11-05T11:29:43.883Z,999.04
2022-11-05T11:30:41.134Z,999.02
2022-11-05T11:31:40.097Z,999.00
2022-11-05T11:32:40.115Z,999.04
2022-11-05T11:33:40.085Z,998.98
2022-11-05T11:34:40.092Z,998.94
2022-11-05T11:35:40.063Z,998.99
2022-11-05T11:36:40.065Z,998.98
2022-11-05T11:37:40.071Z,998.96
2022-11-05T11:38:40.036Z,998.95
2022-11-05T11:39:40.009Z,998.99
2022-11-05T11:40:40.027Z,998.96
2022-11-05T11:41:39.988Z,998.94
2022-11-05T11:42:39.977Z,998.91
2022-11-05T11:43:39.993Z,998.93
2022-11-05T11:44:39.953Z,998.91
2022-11-05T11:45:39.943Z,998.91
2022-11-05T11:46:39.968Z,998.93
2022-11-05T11:47:39.953Z,998.90
2022-11-05T11:48:39.912Z,998.87
2022-11-05T11:49:39.898Z,998.89
2022-11-05T11:50:39.918Z,998.95
2022-11-05T11:51:39.898Z,998.91
2022-11-05T11:52:39.904Z,998.88
2022-11-05T11:53:39.852Z,998.85
2022-11-05T11:54:39.847Z,998.94
2022-11-05T11:55:39.852Z,998.89
2022-11-05T11:56:39.826Z,998.85
2022-11-05T11:57:39.817Z,998.83
2022-11-05T11:58:39.800Z,998.80
2022-11-05T12:00:08.406Z,998.80
2022-11-05T12:00:40.803Z,998.81
2022-11-05T12:01:39.839Z,998.78
2022-11-05T12:02:39.844Z,998.76
2022-11-05T12:03:39.742Z,998.79
2022-11-05T12:04:39.759Z,998.76
2022-11-05T12:05:39.719Z,998.77
2022-11-05T12:06:39.713Z,998.79
2022-11-05T12:07:39.711Z,998.76
2022-11-05T12:08:44.983Z,998.72
2022-11-05T12:09:40.675Z,998.77
2022-11-05T12:10:39.690Z,998.71
2022-11-05T12:11:39.654Z,998.77
2022-11-05T12:12:39.642Z,998.75
2022-11-05T12:13:39.639Z,998.76
2022-11-05T12:14:45.203Z,998.75
2022-11-05T12:15:40.724Z,998.73
2022-11-05T12:16:39.631Z,998.76
2022-11-05T12:17:39.591Z,998.72
2022-11-05T12:18:39.653Z,998.68
2022-11-05T12:19:39.635Z,998.70
2022-11-05T12:20:39.577Z,998.68
2022-11-05T12:21:52.639Z,998.67
2022-11-05T12:22:40.560Z,998.71
2022-11-05T12:23:39.518Z,998.61
2022-11-05T12:24:39.611Z,998.61
2022-11-05T12:25:39.509Z,998.63
2022-11-05T12:26:39.490Z,998.68
2022-11-05T12:27:39.497Z,998.69
2022-11-05T12:29:04.576Z,998.61
2022-11-05T12:29:40.505Z,998.57